sensor_id;sensor_type;location;lat;lon;timestamp;pressure;altitude;pressure_sealevel;temperature;humidity
51053;BME280;37093;37.716;-122.060;2022-08-19T00:01:58;99636.72;;;32.03;21.09
51053;BME280;37093;37.716;-122.060;2022-08-19T00:04:29;99640.93;;;31.98;21.33
51053;BME280;37093;37.716;-122.060;2022-08-19T00:06:57;99640.47;;;31.32;21.92
51053;BME280;37093;37.716;-122.060;2022-08-19T00:09:27;99642.08;;;31.26;21.86
51053;BME280;37093;37.716;-122.060;2022-08-19T00:11:57;99647.50;;;30.71;22.62
51053;BME280;37093;37.716;-122.060;2022-08-19T00:14:27;99652.10;;;31.03;22.88
51053;BME280;37093;37.716;-122.060;2022-08-19T00:16:56;99650.44;;;31.20;22.94
51053;BME280;37093;37.716;-122.060;2022-08-19T00:19:25;99654.16;;;31.17;23.14
51053;BME280;37093;37.716;-122.060;2022-08-19T00:21:54;99661.55;;;30.62;23.93
51053;BME280;37093;37.716;-122.060;2022-08-19T00:24:23;99667.92;;;30.60;24.06
51053;BME280;37093;37.716;-122.060;2022-08-19T00:26:57;99665.10;;;30.07;24.79
51053;BME280;37093;37.716;-122.060;2022-08-19T00:29:26;99665.39;;;29.88;24.86
51053;BME280;37093;37.716;-122.060;2022-08-19T00:31:54;99665.66;;;30.29;24.90
51053;BME280;37093;37.716;-122.060;2022-08-19T00:34:23;99663.51;;;30.04;25.06
51053;BME280;37093;37.716;-122.060;2022-08-19T00:36:53;99664.96;;;30.76;24.43
51053;BME280;37093;37.716;-122.060;2022-08-19T00:39:21;99667.60;;;30.34;24.74
51053;BME280;37093;37.716;-122.060;2022-08-19T00:41:50;99665.73;;;30.47;24.88
51053;BME280;37093;37.716;-122.060;2022-08-19T00:44:21;99658.50;;;30.46;24.91
51053;BME280;37093;37.716;-122.060;2022-08-19T00:46:51;99658.30;;;30.40;24.90
51053;BME280;37093;37.716;-122.060;2022-08-19T00:49:24;99658.09;;;30.15;24.82
51053;BME280;37093;37.716;-122.060;2022-08-19T00:51:57;99663.59;;;30.37;25.01
51053;BME280;37093;37.716;-122.060;2022-08-19T00:54:26;99666.00;;;30.03;25.06
51053;BME280;37093;37.716;-122.060;2022-08-19T00:56:54;99666.69;;;30.01;25.35
51053;BME280;37093;37.716;-122.060;2022-08-19T00:59:23;99662.25;;;30.00;25.33
51053;BME280;37093;37.716;-122.060;2022-08-19T01:01:53;99665.13;;;30.00;25.60
51053;BME280;37093;37.716;-122.060;2022-08-19T01:04:21;99666.37;;;29.58;25.95
51053;BME280;37093;37.716;-122.060;2022-08-19T01:06:50;99662.79;;;29.74;26.04
51053;BME280;37093;37.716;-122.060;2022-08-19T01:09:18;99662.76;;;29.96;25.58
51053;BME280;37093;37.716;-122.060;2022-08-19T01:11:47;99662.15;;;29.73;25.81
51053;BME280;37093;37.716;-122.060;2022-08-19T01:14:15;99660.11;;;29.64;26.69
51053;BME280;37093;37.716;-122.060;2022-08-19T01:16:45;99660.72;;;29.87;27.29
51053;BME280;37093;37.716;-122.060;2022-08-19T01:19:22;99656.95;;;29.35;27.58
51053;BME280;37093;37.716;-122.060;2022-08-19T01:21:57;99655.23;;;29.28;27.70
51053;BME280;37093;37.716;-122.060;2022-08-19T01:24:28;99648.55;;;28.83;27.77
51053;BME280;37093;37.716;-122.060;2022-08-19T01:26:57;99651.33;;;29.06;27.58
51053;BME280;37093;37.716;-122.060;2022-08-19T01:29:26;99653.49;;;28.97;28.14
51053;BME280;37093;37.716;-122.060;2022-08-19T01:31:55;99653.93;;;28.93;27.91
51053;BME280;37093;37.716;-122.060;2022-08-19T01:34:24;99655.01;;;28.71;28.04
51053;BME280;37093;37.716;-122.060;2022-08-19T01:36:52;99656.29;;;28.85;28.12
51053;BME280;37093;37.716;-122.060;2022-08-19T01:39:23;99656.65;;;28.83;28.24
51053;BME280;37093;37.716;-122.060;2022-08-19T01:41:52;99655.04;;;28.82;28.67
51053;BME280;37093;37.716;-122.060;2022-08-19T01:44:20;99661.93;;;28.29;29.27
51053;BME280;37093;37.716;-122.060;2022-08-19T01:46:50;99662.93;;;28.52;28.86
51053;BME280;37093;37.716;-122.060;2022-08-19T01:49:23;99664.37;;;28.66;28.89
51053;BME280;37093;37.716;-122.060;2022-08-19T01:51:52;99661.66;;;28.41;29.17
51053;BME280;37093;37.716;-122.060;2022-08-19T01:54:23;99655.53;;;28.34;28.88
51053;BME280;37093;37.716;-122.060;2022-08-19T01:56:52;99653.58;;;28.30;29.16
51053;BME280;37093;37.716;-122.060;2022-08-19T01:59:24;99654.83;;;28.42;29.24
51053;BME280;37093;37.716;-122.060;2022-08-19T02:01:52;99655.95;;;28.42;28.79
51053;BME280;37093;37.716;-122.060;2022-08-19T02:04:21;99654.48;;;28.30;28.89
51053;BME280;37093;37.716;-122.060;2022-08-19T02:06:50;99654.82;;;28.27;28.75
51053;BME280;37093;37.716;-122.060;2022-08-19T02:09:18;99654.42;;;28.20;29.47
51053;BME280;37093;37.716;-122.060;2022-08-19T02:11:47;99657.66;;;28.01;30.07
51053;BME280;37093;37.716;-122.060;2022-08-19T02:14:15;99654.50;;;28.44;29.94
51053;BME280;37093;37.716;-122.060;2022-08-19T02:16:44;99662.40;;;28.57;30.14
51053;BME280;37093;37.716;-122.060;2022-08-19T02:19:12;99664.63;;;28.26;29.92
51053;BME280;37093;37.716;-122.060;2022-08-19T02:21:41;99668.93;;;28.22;30.39
51053;BME280;37093;37.716;-122.060;2022-08-19T02:24:10;99673.28;;;28.29;30.27
51053;BME280;37093;37.716;-122.060;2022-08-19T02:26:39;99673.75;;;27.44;31.24
51053;BME280;37093;37.716;-122.060;2022-08-19T02:29:08;99672.04;;;27.99;30.87
51053;BME280;37093;37.716;-122.060;2022-08-19T02:31:36;99672.89;;;27.94;30.75
51053;BME280;37093;37.716;-122.060;2022-08-19T02:34:04;99672.69;;;27.91;30.76
51053;BME280;37093;37.716;-122.060;2022-08-19T02:36:33;99675.12;;;27.85;30.95
51053;BME280;37093;37.716;-122.060;2022-08-19T02:39:03;99678.50;;;27.91;30.92
51053;BME280;37093;37.716;-122.060;2022-08-19T02:41:33;99680.15;;;27.78;30.84
51053;BME280;37093;37.716;-122.060;2022-08-19T02:44:02;99683.15;;;27.63;31.18
51053;BME280;37093;37.716;-122.060;2022-08-19T02:46:33;99689.27;;;27.66;31.21
51053;BME280;37093;37.716;-122.060;2022-08-19T02:49:05;99691.40;;;27.57;31.06
51053;BME280;37093;37.716;-122.060;2022-08-19T02:51:37;99696.66;;;27.51;31.13
51053;BME280;37093;37.716;-122.060;2022-08-19T02:54:07;99695.78;;;27.44;31.23
51053;BME280;37093;37.716;-122.060;2022-08-19T02:56:37;99696.33;;;27.36;31.09
51053;BME280;37093;37.716;-122.060;2022-08-19T02:59:06;99698.76;;;27.28;31.66
51053;BME280;37093;37.716;-122.060;2022-08-19T03:01:36;99697.72;;;27.39;31.56
51053;BME280;37093;37.716;-122.060;2022-08-19T03:04:05;99693.74;;;27.24;31.88
51053;BME280;37093;37.716;-122.060;2022-08-19T03:06:37;99693.26;;;27.16;31.89
51053;BME280;37093;37.716;-122.060;2022-08-19T03:09:06;99694.11;;;27.13;31.91
51053;BME280;37093;37.716;-122.060;2022-08-19T03:11:35;99698.45;;;27.18;32.23
51053;BME280;37093;37.716;-122.060;2022-08-19T03:14:06;99701.76;;;26.79;32.27
51053;BME280;37093;37.716;-122.060;2022-08-19T03:16:41;99703.99;;;26.93;32.41
51053;BME280;37093;37.716;-122.060;2022-08-19T03:19:10;99705.13;;;26.35;32.61
51053;BME280;37093;37.716;-122.060;2022-08-19T03:21:38;99709.11;;;26.60;32.66
51053;BME280;37093;37.716;-122.060;2022-08-19T03:24:08;99706.97;;;26.54;32.81
51053;BME280;37093;37.716;-122.060;2022-08-19T03:26:41;99712.68;;;26.49;32.83
51053;BME280;37093;37.716;-122.060;2022-08-19T03:29:10;99716.68;;;26.63;32.73
51053;BME280;37093;37.716;-122.060;2022-08-19T03:31:39;99715.64;;;26.63;32.76
51053;BME280;37093;37.716;-122.060;2022-08-19T03:34:09;99716.41;;;26.57;32.95
51053;BME280;37093;37.716;-122.060;2022-08-19T03:36:38;99717.69;;;26.49;32.86
51053;BME280;37093;37.716;-122.060;2022-08-19T03:39:06;99724.03;;;26.21;33.00
51053;BME280;37093;37.716;-122.060;2022-08-19T03:41:38;99727.80;;;26.43;33.07
51053;BME280;37093;37.716;-122.060;2022-08-19T03:44:07;99724.72;;;26.61;32.82
51053;BME280;37093;37.716;-122.060;2022-08-19T03:46:36;99721.08;;;26.27;33.23
51053;BME280;37093;37.716;-122.060;2022-08-19T03:49:05;99723.97;;;26.17;33.43
51053;BME280;37093;37.716;-122.060;2022-08-19T03:51:36;99729.26;;;26.28;33.41
51053;BME280;37093;37.716;-122.060;2022-08-19T03:54:08;99731.93;;;25.99;33.52
51053;BME280;37093;37.716;-122.060;2022-08-19T03:56:39;99730.46;;;25.92;33.50
51053;BME280;37093;37.716;-122.060;2022-08-19T03:59:10;99733.85;;;25.91;33.16
51053;BME280;37093;37.716;-122.060;2022-08-19T04:01:39;99736.01;;;25.87;33.38
51053;BME280;37093;37.716;-122.060;2022-08-19T04:04:07;99739.68;;;26.10;33.34
51053;BME280;37093;37.716;-122.060;2022-08-19T04:06:38;99743.00;;;25.84;33.73
51053;BME280;37093;37.716;-122.060;2022-08-19T04:09:09;99749.07;;;26.26;33.38
51053;BME280;37093;37.716;-122.060;2022-08-19T04:11:40;99751.68;;;25.83;33.83
51053;BME280;37093;37.716;-122.060;2022-08-19T04:14:10;99751.52;;;25.76;33.88
51053;BME280;37093;37.716;-122.060;2022-08-19T04:16:39;99749.98;;;25.64;34.24
51053;BME280;37093;37.716;-122.060;2022-08-19T04:19:07;99748.28;;;25.77;34.56
51053;BME280;37093;37.716;-122.060;2022-08-19T04:21:36;99747.30;;;25.58;34.49
51053;BME280;37093;37.716;-122.060;2022-08-19T04:24:05;99745.75;;;25.47;35.07
51053;BME280;37093;37.716;-122.060;2022-08-19T04:26:35;99746.80;;;25.29;35.20
51053;BME280;37093;37.716;-122.060;2022-08-19T04:29:09;99749.48;;;25.36;35.45
51053;BME280;37093;37.716;-122.060;2022-08-19T04:31:37;99756.49;;;24.81;36.04
51053;BME280;37093;37.716;-122.060;2022-08-19T04:34:08;99751.60;;;25.11;35.90
51053;BME280;37093;37.716;-122.060;2022-08-19T04:36:39;99755.44;;;24.84;36.37
51053;BME280;37093;37.716;-122.060;2022-08-19T04:39:10;99755.42;;;24.40;36.21
51053;BME280;37093;37.716;-122.060;2022-08-19T04:41:39;99754.00;;;24.80;36.68
51053;BME280;37093;37.716;-122.060;2022-08-19T04:44:08;99753.55;;;24.65;36.80
51053;BME280;37093;37.716;-122.060;2022-08-19T04:46:37;99759.74;;;24.48;36.71
51053;BME280;37093;37.716;-122.060;2022-08-19T04:49:07;99759.60;;;24.60;36.93
51053;BME280;37093;37.716;-122.060;2022-08-19T04:51:36;99760.47;;;24.64;36.68
51053;BME280;37093;37.716;-122.060;2022-08-19T04:54:04;99758.11;;;24.20;36.83
51053;BME280;37093;37.716;-122.060;2022-08-19T04:56:33;99758.80;;;24.66;36.89
51053;BME280;37093;37.716;-122.060;2022-08-19T04:59:01;99756.35;;;24.62;36.85
51053;BME280;37093;37.716;-122.060;2022-08-19T05:01:31;99753.48;;;24.70;36.64
51053;BME280;37093;37.716;-122.060;2022-08-19T05:04:02;99747.97;;;24.78;36.69
51053;BME280;37093;37.716;-122.060;2022-08-19T05:06:32;99744.47;;;24.82;36.30
51053;BME280;37093;37.716;-122.060;2022-08-19T05:09:01;99744.07;;;24.38;36.64
51053;BME280;37093;37.716;-122.060;2022-08-19T05:11:32;99741.69;;;24.58;36.93
51053;BME280;37093;37.716;-122.060;2022-08-19T05:14:01;99745.35;;;24.76;36.92
51053;BME280;37093;37.716;-122.060;2022-08-19T05:16:29;99746.41;;;24.37;36.70
51053;BME280;37093;37.716;-122.060;2022-08-19T05:18:57;99744.29;;;24.58;36.37
51053;BME280;37093;37.716;-122.060;2022-08-19T05:21:27;99744.04;;;24.83;36.46
51053;BME280;37093;37.716;-122.060;2022-08-19T05:23:55;99742.73;;;24.61;36.90
51053;BME280;37093;37.716;-122.060;2022-08-19T05:26:23;99741.80;;;24.39;36.64
51053;BME280;37093;37.716;-122.060;2022-08-19T05:28:51;99743.55;;;23.90;38.21
51053;BME280;37093;37.716;-122.060;2022-08-19T05:31:20;99736.72;;;24.40;37.02
51053;BME280;37093;37.716;-122.060;2022-08-19T05:33:49;99732.57;;;24.50;36.97
51053;BME280;37093;37.716;-122.060;2022-08-19T05:36:17;99731.54;;;24.16;36.80
51053;BME280;37093;37.716;-122.060;2022-08-19T05:38:45;99727.81;;;24.46;36.64
51053;BME280;37093;37.716;-122.060;2022-08-19T05:41:14;99727.21;;;24.47;36.98
51053;BME280;37093;37.716;-122.060;2022-08-19T05:43:43;99723.07;;;24.25;36.65
51053;BME280;37093;37.716;-122.060;2022-08-19T05:46:17;99722.05;;;24.29;36.59
51053;BME280;37093;37.716;-122.060;2022-08-19T05:48:47;99719.53;;;24.45;37.10
51053;BME280;37093;37.716;-122.060;2022-08-19T05:51:15;99714.49;;;24.69;36.60
51053;BME280;37093;37.716;-122.060;2022-08-19T05:53:44;99716.77;;;24.58;37.19
51053;BME280;37093;37.716;-122.060;2022-08-19T05:56:15;99718.10;;;24.62;36.71
51053;BME280;37093;37.716;-122.060;2022-08-19T05:58:45;99718.95;;;24.65;37.21
51053;BME280;37093;37.716;-122.060;2022-08-19T06:01:15;99718.28;;;24.64;37.15
51053;BME280;37093;37.716;-122.060;2022-08-19T06:03:44;99715.63;;;24.57;37.05
51053;BME280;37093;37.716;-122.060;2022-08-19T06:06:15;99712.79;;;24.35;37.16
51053;BME280;37093;37.716;-122.060;2022-08-19T06:08:44;99714.52;;;24.56;37.32
51053;BME280;37093;37.716;-122.060;2022-08-19T06:11:16;99711.47;;;24.52;37.80
51053;BME280;37093;37.716;-122.060;2022-08-19T06:13:46;99711.96;;;24.47;37.78
51053;BME280;37093;37.716;-122.060;2022-08-19T06:16:14;99711.80;;;24.39;38.33
51053;BME280;37093;37.716;-122.060;2022-08-19T06:18:43;99707.99;;;24.39;37.91
51053;BME280;37093;37.716;-122.060;2022-08-19T06:21:11;99705.37;;;24.25;37.40
51053;BME280;37093;37.716;-122.060;2022-08-19T06:23:40;99701.35;;;24.54;37.84
51053;BME280;37093;37.716;-122.060;2022-08-19T06:26:12;99701.30;;;24.37;37.41
51053;BME280;37093;37.716;-122.060;2022-08-19T06:28:40;99699.70;;;24.40;37.64
51053;BME280;37093;37.716;-122.060;2022-08-19T06:31:09;99699.22;;;24.54;37.85
51053;BME280;37093;37.716;-122.060;2022-08-19T06:33:38;99697.46;;;24.58;37.57
51053;BME280;37093;37.716;-122.060;2022-08-19T06:36:08;99696.37;;;24.11;37.84
51053;BME280;37093;37.716;-122.060;2022-08-19T06:38:44;99699.88;;;24.58;37.59
51053;BME280;37093;37.716;-122.060;2022-08-19T06:41:12;99698.49;;;24.58;37.55
51053;BME280;37093;37.716;-122.060;2022-08-19T06:43:41;99699.57;;;24.49;37.97
51053;BME280;37093;37.716;-122.060;2022-08-19T06:46:12;99695.20;;;24.06;37.44
51053;BME280;37093;37.716;-122.060;2022-08-19T06:48:40;99699.64;;;24.44;37.65
51053;BME280;37093;37.716;-122.060;2022-08-19T06:51:09;99696.21;;;24.48;37.40
51053;BME280;37093;37.716;-122.060;2022-08-19T06:53:37;99694.45;;;24.46;37.55
51053;BME280;37093;37.716;-122.060;2022-08-19T06:56:06;99694.18;;;24.46;37.82
51053;BME280;37093;37.716;-122.060;2022-08-19T06:58:34;99697.39;;;24.42;37.89
51053;BME280;37093;37.716;-122.060;2022-08-19T07:01:14;99692.30;;;23.54;37.75
51053;BME280;37093;37.716;-122.060;2022-08-19T07:03:43;99691.74;;;23.52;36.91
51053;BME280;37093;37.716;-122.060;2022-08-19T07:06:14;99696.02;;;25.01;34.74
51053;BME280;37093;37.716;-122.060;2022-08-19T07:08:43;99695.18;;;25.56;34.89
51053;BME280;37093;37.716;-122.060;2022-08-19T07:11:15;99692.36;;;24.98;35.74
51053;BME280;37093;37.716;-122.060;2022-08-19T07:13:44;99687.11;;;24.57;36.04
51053;BME280;37093;37.716;-122.060;2022-08-19T07:16:14;99690.53;;;24.53;36.65
51053;BME280;37093;37.716;-122.060;2022-08-19T07:18:44;99689.26;;;24.14;36.65
51053;BME280;37093;37.716;-122.060;2022-08-19T07:21:14;99689.41;;;24.30;36.85
51053;BME280;37093;37.716;-122.060;2022-08-19T07:23:44;99684.99;;;24.45;37.15
51053;BME280;37093;37.716;-122.060;2022-08-19T07:26:14;99682.20;;;24.39;37.10
51053;BME280;37093;37.716;-122.060;2022-08-19T07:28:43;99685.84;;;24.13;37.25
51053;BME280;37093;37.716;-122.060;2022-08-19T07:31:13;99685.39;;;24.34;36.82
51053;BME280;37093;37.716;-122.060;2022-08-19T07:33:42;99681.26;;;24.07;36.85
51053;BME280;37093;37.716;-122.060;2022-08-19T07:36:13;99684.23;;;24.08;37.31
51053;BME280;37093;37.716;-122.060;2022-08-19T07:38:45;99682.24;;;24.03;37.49
51053;BME280;37093;37.716;-122.060;2022-08-19T07:41:15;99679.85;;;23.98;37.86
51053;BME280;37093;37.716;-122.060;2022-08-19T07:43:44;99680.24;;;24.07;38.47
51053;BME280;37093;37.716;-122.060;2022-08-19T07:46:12;99680.31;;;24.10;38.62
51053;BME280;37093;37.716;-122.060;2022-08-19T07:48:43;99681.50;;;23.36;39.00
51053;BME280;37093;37.716;-122.060;2022-08-19T07:51:14;99681.86;;;23.45;38.90
51053;BME280;37093;37.716;-122.060;2022-08-19T07:53:44;99682.05;;;23.79;38.89
51053;BME280;37093;37.716;-122.060;2022-08-19T07:56:13;99681.28;;;23.62;38.64
51053;BME280;37093;37.716;-122.060;2022-08-19T07:58:44;99679.27;;;23.63;38.38
51053;BME280;37093;37.716;-122.060;2022-08-19T08:01:15;99678.55;;;23.69;38.00
51053;BME280;37093;37.716;-122.060;2022-08-19T08:03:44;99676.22;;;23.54;38.19
51053;BME280;37093;37.716;-122.060;2022-08-19T08:06:13;99670.07;;;23.82;38.03
51053;BME280;37093;37.716;-122.060;2022-08-19T08:08:43;99669.85;;;23.85;37.58
51053;BME280;37093;37.716;-122.060;2022-08-19T08:11:12;99668.37;;;23.88;37.81
51053;BME280;37093;37.716;-122.060;2022-08-19T08:13:40;99666.90;;;23.87;37.41
51053;BME280;37093;37.716;-122.060;2022-08-19T08:16:09;99667.15;;;23.84;38.06
51053;BME280;37093;37.716;-122.060;2022-08-19T08:18:37;99663.85;;;23.81;37.77
51053;BME280;37093;37.716;-122.060;2022-08-19T08:21:06;99664.96;;;23.78;37.49
51053;BME280;37093;37.716;-122.060;2022-08-19T08:23:35;99660.43;;;23.96;37.96
51053;BME280;37093;37.716;-122.060;2022-08-19T08:26:03;99662.12;;;23.67;38.21
51053;BME280;37093;37.716;-122.060;2022-08-19T08:28:32;99664.14;;;23.64;38.07
51053;BME280;37093;37.716;-122.060;2022-08-19T08:31:00;99660.15;;;23.60;38.29
51053;BME280;37093;37.716;-122.060;2022-08-19T08:33:29;99655.23;;;23.44;38.48
51053;BME280;37093;37.716;-122.060;2022-08-19T08:35:58;99649.76;;;23.47;38.52
51053;BME280;37093;37.716;-122.060;2022-08-19T08:38:27;99649.48;;;23.77;38.47
51053;BME280;37093;37.716;-122.060;2022-08-19T08:41:00;99651.73;;;23.78;38.34
51053;BME280;37093;37.716;-122.060;2022-08-19T08:43:35;99651.49;;;23.98;38.63
51053;BME280;37093;37.716;-122.060;2022-08-19T08:46:07;99652.56;;;23.53;37.84
51053;BME280;37093;37.716;-122.060;2022-08-19T08:48:41;99650.71;;;23.58;37.75
51053;BME280;37093;37.716;-122.060;2022-08-19T08:51:16;99646.69;;;23.86;38.10
51053;BME280;37093;37.716;-122.060;2022-08-19T08:53:50;99648.34;;;23.76;37.60
51053;BME280;37093;37.716;-122.060;2022-08-19T08:56:19;99645.57;;;23.66;38.41
51053;BME280;37093;37.716;-122.060;2022-08-19T08:58:54;99645.02;;;23.63;38.70
51053;BME280;37093;37.716;-122.060;2022-08-19T09:01:25;99641.10;;;23.56;38.73
51053;BME280;37093;37.716;-122.060;2022-08-19T09:03:54;99638.52;;;23.52;38.42
51053;BME280;37093;37.716;-122.060;2022-08-19T09:06:26;99634.11;;;23.34;38.52
51053;BME280;37093;37.716;-122.060;2022-08-19T09:09:04;99632.67;;;23.31;38.85
51053;BME280;37093;37.716;-122.060;2022-08-19T09:11:49;99632.49;;;23.29;38.84
51053;BME280;37093;37.716;-122.060;2022-08-19T09:14:28;99627.33;;;23.28;38.73
51053;BME280;37093;37.716;-122.060;2022-08-19T09:17:00;99623.36;;;23.28;38.82
51053;BME280;37093;37.716;-122.060;2022-08-19T09:19:29;99621.54;;;23.20;38.55
51053;BME280;37093;37.716;-122.060;2022-08-19T09:21:57;99620.84;;;22.96;38.07
51053;BME280;37093;37.716;-122.060;2022-08-19T09:24:26;99618.72;;;23.20;38.36
51053;BME280;37093;37.716;-122.060;2022-08-19T09:26:54;99614.02;;;23.25;38.37
51053;BME280;37093;37.716;-122.060;2022-08-19T09:29:23;99615.83;;;23.00;38.37
51053;BME280;37093;37.716;-122.060;2022-08-19T09:31:52;99614.24;;;23.24;38.52
51053;BME280;37093;37.716;-122.060;2022-08-19T09:34:20;99615.91;;;22.97;38.89
51053;BME280;37093;37.716;-122.060;2022-08-19T09:36:50;99609.44;;;23.01;38.26
51053;BME280;37093;37.716;-122.060;2022-08-19T09:39:19;99608.28;;;23.21;38.56
51053;BME280;37093;37.716;-122.060;2022-08-19T09:41:47;99604.57;;;23.20;38.99
51053;BME280;37093;37.716;-122.060;2022-08-19T09:44:16;99604.23;;;22.96;38.93
51053;BME280;37093;37.716;-122.060;2022-08-19T09:46:45;99606.33;;;23.22;38.47
51053;BME280;37093;37.716;-122.060;2022-08-19T09:49:14;99605.30;;;23.22;39.16
51053;BME280;37093;37.716;-122.060;2022-08-19T09:51:43;99606.33;;;23.27;38.53
51053;BME280;37093;37.716;-122.060;2022-08-19T09:54:11;99606.51;;;23.10;38.70
51053;BME280;37093;37.716;-122.060;2022-08-19T09:56:39;99605.93;;;23.37;39.18
51053;BME280;37093;37.716;-122.060;2022-08-19T09:59:08;99608.55;;;23.13;38.44
51053;BME280;37093;37.716;-122.060;2022-08-19T10:01:36;99608.02;;;23.40;38.31
51053;BME280;37093;37.716;-122.060;2022-08-19T10:04:05;99600.99;;;23.39;38.87
51053;BME280;37093;37.716;-122.060;2022-08-19T10:06:34;99599.56;;;23.18;38.72
51053;BME280;37093;37.716;-122.060;2022-08-19T10:09:04;99604.88;;;23.21;38.74
51053;BME280;37093;37.716;-122.060;2022-08-19T10:11:33;99607.01;;;23.22;38.20
51053;BME280;37093;37.716;-122.060;2022-08-19T10:14:02;99609.63;;;23.42;38.64
51053;BME280;37093;37.716;-122.060;2022-08-19T10:16:30;99610.38;;;23.19;38.88
51053;BME280;37093;37.716;-122.060;2022-08-19T10:18:59;99612.37;;;23.21;38.56
51053;BME280;37093;37.716;-122.060;2022-08-19T10:21:30;99614.03;;;23.20;38.78
51053;BME280;37093;37.716;-122.060;2022-08-19T10:24:00;99612.26;;;23.20;38.84
51053;BME280;37093;37.716;-122.060;2022-08-19T10:26:30;99607.96;;;23.18;38.99
51053;BME280;37093;37.716;-122.060;2022-08-19T10:28:59;99603.35;;;23.29;39.04
51053;BME280;37093;37.716;-122.060;2022-08-19T10:31:29;99604.96;;;23.35;38.97
51053;BME280;37093;37.716;-122.060;2022-08-19T10:33:58;99603.37;;;23.13;38.85
51053;BME280;37093;37.716;-122.060;2022-08-19T10:36:29;99600.85;;;23.22;39.21
51053;BME280;37093;37.716;-122.060;2022-08-19T10:38:59;99599.74;;;22.99;38.97
51053;BME280;37093;37.716;-122.060;2022-08-19T10:41:31;99594.35;;;23.07;38.88
51053;BME280;37093;37.716;-122.060;2022-08-19T10:44:02;99596.47;;;23.01;38.89
51053;BME280;37093;37.716;-122.060;2022-08-19T10:46:33;99599.51;;;23.26;38.76
51053;BME280;37093;37.716;-122.060;2022-08-19T10:49:05;99599.27;;;23.11;38.99
51053;BME280;37093;37.716;-122.060;2022-08-19T10:51:34;99598.76;;;23.13;39.09
51053;BME280;37093;37.716;-122.060;2022-08-19T10:54:03;99596.47;;;22.86;38.80
51053;BME280;37093;37.716;-122.060;2022-08-19T10:56:32;99597.96;;;23.11;39.35
51053;BME280;37093;37.716;-122.060;2022-08-19T10:59:01;99597.45;;;23.05;39.22
51053;BME280;37093;37.716;-122.060;2022-08-19T11:01:31;99595.53;;;23.12;38.58
51053;BME280;37093;37.716;-122.060;2022-08-19T11:04:01;99596.50;;;23.04;39.11
51053;BME280;37093;37.716;-122.060;2022-08-19T11:06:29;99597.97;;;22.96;39.10
51053;BME280;37093;37.716;-122.060;2022-08-19T11:08:59;99595.78;;;22.71;38.83
51053;BME280;37093;37.716;-122.060;2022-08-19T11:11:28;99595.31;;;22.77;39.36
51053;BME280;37093;37.716;-122.060;2022-08-19T11:13:56;99591.70;;;22.66;39.44
51053;BME280;37093;37.716;-122.060;2022-08-19T11:16:26;99594.06;;;22.68;39.23
51053;BME280;37093;37.716;-122.060;2022-08-19T11:18:58;99591.13;;;22.51;39.86
51053;BME280;37093;37.716;-122.060;2022-08-19T11:21:29;99587.87;;;22.57;39.68
51053;BME280;37093;37.716;-122.060;2022-08-19T11:23:59;99584.78;;;22.48;39.99
51053;BME280;37093;37.716;-122.060;2022-08-19T11:26:30;99582.91;;;22.46;39.77
51053;BME280;37093;37.716;-122.060;2022-08-19T11:29:00;99583.27;;;22.42;39.91
51053;BME280;37093;37.716;-122.060;2022-08-19T11:31:30;99581.34;;;22.63;39.80
51053;BME280;37093;37.716;-122.060;2022-08-19T11:34:00;99584.42;;;22.64;39.96
51053;BME280;37093;37.716;-122.060;2022-08-19T11:36:30;99583.54;;;22.43;39.25
51053;BME280;37093;37.716;-122.060;2022-08-19T11:39:00;99584.99;;;22.62;39.60
51053;BME280;37093;37.716;-122.060;2022-08-19T11:41:28;99586.26;;;22.36;39.75
51053;BME280;37093;37.716;-122.060;2022-08-19T11:43:57;99585.04;;;22.05;40.06
51053;BME280;37093;37.716;-122.060;2022-08-19T11:46:26;99583.98;;;22.22;39.94
51053;BME280;37093;37.716;-122.060;2022-08-19T11:48:55;99587.68;;;22.24;39.71
51053;BME280;37093;37.716;-122.060;2022-08-19T11:51:25;99583.28;;;22.22;39.88
51053;BME280;37093;37.716;-122.060;2022-08-19T11:53:54;99580.66;;;22.51;39.88
51053;BME280;37093;37.716;-122.060;2022-08-19T11:56:24;99578.34;;;22.34;39.74
51053;BME280;37093;37.716;-122.060;2022-08-19T11:58:52;99579.26;;;22.68;39.51
51053;BME280;37093;37.716;-122.060;2022-08-19T12:01:22;99583.87;;;22.70;39.69
51053;BME280;37093;37.716;-122.060;2022-08-19T12:03:52;99582.55;;;22.38;39.88
51053;BME280;37093;37.716;-122.060;2022-08-19T12:06:24;99584.46;;;22.43;39.96
51053;BME280;37093;37.716;-122.060;2022-08-19T12:08:53;99583.15;;;22.34;39.95
51053;BME280;37093;37.716;-122.060;2022-08-19T12:11:22;99583.82;;;22.56;39.71
51053;BME280;37093;37.716;-122.060;2022-08-19T12:13:51;99582.26;;;22.29;40.36
51053;BME280;37093;37.716;-122.060;2022-08-19T12:16:22;99582.20;;;22.86;40.06
51053;BME280;37093;37.716;-122.060;2022-08-19T12:18:51;99581.40;;;22.26;40.13
51053;BME280;37093;37.716;-122.060;2022-08-19T12:21:22;99583.08;;;22.65;39.64
51053;BME280;37093;37.716;-122.060;2022-08-19T12:23:51;99584.03;;;22.43;39.84
51053;BME280;37093;37.716;-122.060;2022-08-19T12:26:20;99580.73;;;22.43;39.64
51053;BME280;37093;37.716;-122.060;2022-08-19T12:28:48;99575.69;;;22.44;39.36
51053;BME280;37093;37.716;-122.060;2022-08-19T12:31:17;99573.98;;;22.47;39.46
51053;BME280;37093;37.716;-122.060;2022-08-19T12:33:46;99571.72;;;22.43;39.27
51053;BME280;37093;37.716;-122.060;2022-08-19T12:36:16;99573.83;;;22.28;39.46
51053;BME280;37093;37.716;-122.060;2022-08-19T12:38:45;99579.52;;;22.17;39.74
51053;BME280;37093;37.716;-122.060;2022-08-19T12:41:16;99577.62;;;22.07;39.65
51053;BME280;37093;37.716;-122.060;2022-08-19T12:43:45;99577.22;;;22.06;39.76